Terminal Aerodrome Forecast
Issued by NWS

Home | Current Version | Previous Version | Text Only | Print | Product List | Glossary Off
Versions: 1 2 3 4 5 6 7 8 9 10 11 12 13 14 15 16 17

000
FTUS42 KMHX 272324
TAFPGV
TAF
KPGV 272324Z 2800/2824 20006KT P6SM SCT020 BKN030
     FM280130 21009KT 5SM -RA VCTS BKN030CB
     FM280230 21005KT P6SM SCT030
     FM281100 29007KT P6SM SCT250
     FM281700 28007KT P6SM SCT040
      AMD LTD TO CLD VIS AND WIND=

USA.gov is the U.S. government's official web portal to all federal, state and local government web resources and services.